Check out our new PWSWeather beta!
PWSweather.com
Personal Weather Stations
Station Observations
KIMITO
Ängskulla, KimitoFI 25700

ÄngskullaKimitoFI 25700

Lat: 60.174645, Lon: 22.726327

Elevation: 36

Station Type: Davis Vantage VUE

www.pvuorio.net

High Low Average
Temperature 37.7°F3.2°C 30.1°F-1.1°C 33.5°F0.8°C
Dew Point 36.3°F2.4°C 29.3°F-1.5°C 32.2°F0.1°C
Winds 2.3 mph 3.7 kmh Calm Calm Calm SECalm SE
Wind Gusts 6.9 mph11.1 kmh -- 1.0 mph1.6 kmh
Humidity 98% 91% 95%
Pressure 29.67 in1004.7 mb 29.49 in998.6 mb -
Precipitation 0.00 in0.0 mm - -
Hour Temp Dew Point Humidity Winds Wind Gusts Pressure Precip Precip Rate Daily Precip Total
12:01 AM 31.9°F-0.1°C 29.8°F-1.2°C 92% Calm Calm 1.1 mph1.8 kmh 29.66 in1004.4 mb - 0.00 in0.0 mm 0.00 in0.0 mm
12:07 AM 32.0°F0.0°C 30.2°F-1.0°C 93% Calm Calm 1.1 mph1.8 kmh 29.67 in1004.7 mb - 0.00 in0.0 mm 0.00 in0.0 mm
12:13 AM 32.3°F0.2°C 30.5°F-0.8°C 93% Calm Calm -- 29.67 in1004.7 mb - 0.00 in0.0 mm 0.00 in0.0 mm
12:18 AM 32.4°F0.2°C 30.6°F-0.8°C 93% 1.1 mph S1.8 kmh S 1.1 mph1.8 kmh 29.67 in1004.7 mb - 0.00 in0.0 mm 0.00 in0.0 mm
12:24 AM 32.7°F0.4°C 30.9°F-0.6°C 93% Calm Calm 1.1 mph1.8 kmh 29.67 in1004.7 mb - 0.00 in0.0 mm 0.00 in0.0 mm
12:30 AM 32.8°F0.4°C 31.0°F-0.6°C 93% Calm Calm -- 29.66 in1004.4 mb - 0.00 in0.0 mm 0.00 in0.0 mm
12:35 AM 32.7°F0.4°C 30.6°F-0.8°C 92% Calm Calm 1.1 mph1.8 kmh 29.66 in1004.4 mb - 0.00 in0.0 mm 0.00 in0.0 mm
12:41 AM 32.8°F0.4°C 30.7°F-0.7°C 92% Calm Calm 1.1 mph1.8 kmh 29.65 in1004.1 mb - 0.00 in0.0 mm 0.00 in0.0 mm
12:46 AM 32.5°F0.3°C 30.5°F-0.8°C 92% Calm Calm -- 29.64 in1003.7 mb - 0.00 in0.0 mm 0.00 in0.0 mm
12:52 AM 33.1°F0.6°C 31.6°F-0.2°C 94% Calm Calm 1.1 mph1.8 kmh 29.65 in1004.1 mb - 0.00 in0.0 mm 0.00 in0.0 mm
12:58 AM 33.3°F0.7°C 31.7°F-0.2°C 94% 1.1 mph SE1.8 kmh SE 2.3 mph3.7 kmh 29.65 in1004.1 mb - 0.00 in0.0 mm 0.00 in0.0 mm
01:03 AM 33.7°F0.9°C 31.9°F-0.1°C 93% 1.1 mph SE1.8 kmh SE 3.4 mph5.5 kmh 29.64 in1003.7 mb - 0.00 in0.0 mm 0.00 in0.0 mm
01:09 AM 33.7°F0.9°C 31.6°F-0.2°C 92% Calm Calm 2.3 mph3.7 kmh 29.64 in1003.7 mb - 0.00 in0.0 mm 0.00 in0.0 mm
01:15 AM 33.9°F1.1°C 31.8°F-0.1°C 92% Calm Calm -- 29.64 in1003.7 mb - 0.00 in0.0 mm 0.00 in0.0 mm
01:20 AM 34.1°F1.2°C 32.0°F0.0°C 92% Calm Calm 1.1 mph1.8 kmh 29.64 in1003.7 mb - 0.00 in0.0 mm 0.00 in0.0 mm
01:26 AM 34.1°F1.2°C 31.7°F-0.2°C 91% Calm Calm 2.3 mph3.7 kmh 29.64 in1003.7 mb - 0.00 in0.0 mm 0.00 in0.0 mm
01:31 AM 34.1°F1.2°C 31.7°F-0.2°C 91% Calm Calm 1.1 mph1.8 kmh 29.64 in1003.7 mb - 0.00 in0.0 mm 0.00 in0.0 mm
01:37 AM 34.3°F1.3°C 31.9°F-0.1°C 91% Calm Calm -- 29.64 in1003.7 mb - 0.00 in0.0 mm 0.00 in0.0 mm
01:43 AM 34.3°F1.3°C 31.9°F-0.1°C 91% Calm Calm -- 29.64 in1003.7 mb - 0.00 in0.0 mm 0.00 in0.0 mm
01:48 AM 34.6°F1.4°C 32.5°F0.3°C 92% Calm Calm 1.1 mph1.8 kmh 29.64 in1003.7 mb - 0.00 in0.0 mm 0.00 in0.0 mm
01:54 AM 34.9°F1.6°C 32.5°F0.3°C 91% Calm Calm -- 29.64 in1003.7 mb - 0.00 in0.0 mm 0.00 in0.0 mm
02:00 AM 34.8°F1.6°C 32.4°F0.2°C 91% Calm Calm -- 29.63 in1003.4 mb - 0.00 in0.0 mm 0.00 in0.0 mm
02:05 AM 34.7°F1.5°C 32.4°F0.2°C 91% Calm Calm 3.4 mph5.5 kmh 29.63 in1003.4 mb - 0.00 in0.0 mm 0.00 in0.0 mm
02:11 AM 34.8°F1.6°C 32.4°F0.2°C 91% Calm Calm -- 29.63 in1003.4 mb - 0.00 in0.0 mm 0.00 in0.0 mm
02:16 AM 34.7°F1.5°C 32.3°F0.2°C 91% 1.1 mph ENE1.8 kmh ENE 1.1 mph1.8 kmh 29.63 in1003.4 mb - 0.00 in0.0 mm 0.00 in0.0 mm
02:22 AM 34.7°F1.5°C 32.3°F0.2°C 91% Calm Calm -- 29.62 in1003.0 mb - 0.00 in0.0 mm 0.00 in0.0 mm
02:28 AM 34.7°F1.5°C 32.3°F0.2°C 91% Calm Calm 1.1 mph1.8 kmh 29.62 in1003.0 mb - 0.00 in0.0 mm 0.00 in0.0 mm
02:33 AM 34.7°F1.5°C 32.3°F0.2°C 91% Calm Calm -- 29.63 in1003.4 mb - 0.00 in0.0 mm 0.00 in0.0 mm
02:39 AM 34.6°F1.4°C 32.2°F0.1°C 91% Calm Calm 1.1 mph1.8 kmh 29.62 in1003.0 mb - 0.00 in0.0 mm 0.00 in0.0 mm
02:45 AM 34.7°F1.5°C 32.6°F0.3°C 92% Calm Calm -- 29.61 in1002.7 mb - 0.00 in0.0 mm 0.00 in0.0 mm
02:50 AM 34.7°F1.5°C 32.6°F0.3°C 92% Calm Calm -- 29.61 in1002.7 mb - 0.00 in0.0 mm 0.00 in0.0 mm
02:56 AM 34.9°F1.6°C 32.8°F0.4°C 92% 1.1 mph ESE1.8 kmh ESE 2.3 mph3.7 kmh 29.61 in1002.7 mb - 0.00 in0.0 mm 0.00 in0.0 mm
03:01 AM 34.9°F1.6°C 32.8°F0.4°C 92% Calm Calm 1.1 mph1.8 kmh 29.61 in1002.7 mb - 0.00 in0.0 mm 0.00 in0.0 mm
03:07 AM 35.4°F1.9°C 33.3°F0.7°C 92% Calm Calm 1.1 mph1.8 kmh 29.61 in1002.7 mb - 0.00 in0.0 mm 0.00 in0.0 mm
03:13 AM 35.4°F1.9°C 33.0°F0.6°C 91% Calm Calm 1.1 mph1.8 kmh 29.61 in1002.7 mb - 0.00 in0.0 mm 0.00 in0.0 mm
03:18 AM 35.3°F1.8°C 32.9°F0.5°C 91% 1.1 mph N1.8 kmh N 3.4 mph5.5 kmh 29.61 in1002.7 mb - 0.00 in0.0 mm 0.00 in0.0 mm
03:24 AM 35.3°F1.8°C 33.2°F0.7°C 92% Calm Calm 2.3 mph3.7 kmh 29.61 in1002.7 mb - 0.00 in0.0 mm 0.00 in0.0 mm
03:30 AM 35.3°F1.8°C 33.2°F0.7°C 92% Calm Calm -- 29.61 in1002.7 mb - 0.00 in0.0 mm 0.00 in0.0 mm
03:35 AM 35.4°F1.9°C 33.3°F0.7°C 92% Calm Calm 1.1 mph1.8 kmh 29.61 in1002.7 mb - 0.00 in0.0 mm 0.00 in0.0 mm
03:41 AM 35.4°F1.9°C 33.3°F0.7°C 92% Calm Calm -- 29.60 in1002.4 mb - 0.00 in0.0 mm 0.00 in0.0 mm
03:46 AM 35.4°F1.9°C 33.0°F0.6°C 91% Calm Calm -- 29.60 in1002.4 mb - 0.00 in0.0 mm 0.00 in0.0 mm
03:52 AM 35.3°F1.8°C 33.2°F0.7°C 92% Calm Calm -- 29.60 in1002.4 mb - 0.00 in0.0 mm 0.00 in0.0 mm
03:58 AM 35.5°F1.9°C 33.4°F0.8°C 92% Calm Calm -- 29.60 in1002.4 mb - 0.00 in0.0 mm 0.00 in0.0 mm
04:03 AM 35.5°F1.9°C 33.4°F0.8°C 92% Calm Calm 1.1 mph1.8 kmh 29.60 in1002.4 mb - 0.00 in0.0 mm 0.00 in0.0 mm
04:09 AM 35.7°F2.1°C 33.6°F0.9°C 92% 1.1 mph ENE1.8 kmh ENE 1.1 mph1.8 kmh 29.60 in1002.4 mb - 0.00 in0.0 mm 0.00 in0.0 mm
04:15 AM 35.8°F2.1°C 33.4°F0.8°C 91% Calm Calm -- 29.60 in1002.4 mb - 0.00 in0.0 mm 0.00 in0.0 mm
04:20 AM 35.9°F2.2°C 33.8°F1.0°C 92% Calm Calm -- 29.60 in1002.4 mb - 0.00 in0.0 mm 0.00 in0.0 mm
04:26 AM 36.0°F2.2°C 33.9°F1.1°C 92% Calm Calm 1.1 mph1.8 kmh 29.60 in1002.4 mb - 0.00 in0.0 mm 0.00 in0.0 mm
04:31 AM 36.0°F2.2°C 33.9°F1.1°C 92% Calm Calm -- 29.60 in1002.4 mb - 0.00 in0.0 mm 0.00 in0.0 mm
04:37 AM 36.2°F2.3°C 33.8°F1.0°C 91% Calm Calm -- 29.60 in1002.4 mb - 0.00 in0.0 mm 0.00 in0.0 mm
04:43 AM 36.1°F2.3°C 33.7°F0.9°C 91% Calm Calm -- 29.60 in1002.4 mb - 0.00 in0.0 mm 0.00 in0.0 mm
04:48 AM 35.9°F2.2°C 33.5°F0.8°C 91% Calm Calm -- 29.60 in1002.4 mb - 0.00 in0.0 mm 0.00 in0.0 mm
04:54 AM 35.9°F2.2°C 33.8°F1.0°C 92% Calm Calm -- 29.59 in1002.0 mb - 0.00 in0.0 mm 0.00 in0.0 mm
05:00 AM 35.9°F2.2°C 33.8°F1.0°C 92% Calm Calm 1.1 mph1.8 kmh 29.59 in1002.0 mb - 0.00 in0.0 mm 0.00 in0.0 mm
05:05 AM 36.0°F2.2°C 33.9°F1.1°C 92% Calm Calm -- 29.59 in1002.0 mb - 0.00 in0.0 mm 0.00 in0.0 mm
05:11 AM 35.7°F2.1°C 33.3°F0.7°C 91% Calm Calm -- 29.58 in1001.7 mb - 0.00 in0.0 mm 0.00 in0.0 mm
05:16 AM 35.7°F2.1°C 33.3°F0.7°C 91% Calm Calm -- 29.58 in1001.7 mb - 0.00 in0.0 mm 0.00 in0.0 mm
05:22 AM 35.3°F1.8°C 33.2°F0.7°C 92% Calm Calm -- 29.59 in1002.0 mb - 0.00 in0.0 mm 0.00 in0.0 mm
05:28 AM 35.1°F1.7°C 33.0°F0.6°C 92% Calm Calm -- 29.59 in1002.0 mb - 0.00 in0.0 mm 0.00 in0.0 mm
05:33 AM 34.9°F1.6°C 32.8°F0.4°C 92% Calm Calm -- 29.59 in1002.0 mb - 0.00 in0.0 mm 0.00 in0.0 mm
05:39 AM 34.6°F1.4°C 32.8°F0.4°C 93% Calm Calm -- 29.58 in1001.7 mb - 0.00 in0.0 mm 0.00 in0.0 mm
05:45 AM 34.7°F1.5°C 32.9°F0.5°C 93% Calm Calm -- 29.59 in1002.0 mb - 0.00 in0.0 mm 0.00 in0.0 mm
05:50 AM 34.7°F1.5°C 32.9°F0.5°C 93% Calm Calm -- 29.59 in1002.0 mb - 0.00 in0.0 mm 0.00 in0.0 mm
05:56 AM 34.5°F1.4°C 32.7°F0.4°C 93% Calm Calm 1.1 mph1.8 kmh 29.58 in1001.7 mb - 0.00 in0.0 mm 0.00 in0.0 mm
06:01 AM 34.6°F1.4°C 33.1°F0.6°C 94% Calm Calm 1.1 mph1.8 kmh 29.59 in1002.0 mb - 0.00 in0.0 mm 0.00 in0.0 mm
06:07 AM 34.5°F1.4°C 32.7°F0.4°C 93% Calm Calm 1.1 mph1.8 kmh 29.59 in1002.0 mb - 0.00 in0.0 mm 0.00 in0.0 mm
06:13 AM 34.4°F1.3°C 32.6°F0.3°C 93% Calm Calm -- 29.59 in1002.0 mb - 0.00 in0.0 mm 0.00 in0.0 mm
06:18 AM 34.2°F1.2°C 32.7°F0.4°C 94% Calm Calm -- 29.59 in1002.0 mb - 0.00 in0.0 mm 0.00 in0.0 mm
06:24 AM 34.2°F1.2°C 32.6°F0.3°C 94% Calm Calm -- 29.59 in1002.0 mb - 0.00 in0.0 mm 0.00 in0.0 mm
06:30 AM 33.8°F1.0°C 32.2°F0.1°C 94% Calm Calm -- 29.58 in1001.7 mb - 0.00 in0.0 mm 0.00 in0.0 mm
06:35 AM 33.7°F0.9°C 32.1°F0.1°C 94% Calm Calm -- 29.58 in1001.7 mb - 0.00 in0.0 mm 0.00 in0.0 mm
06:41 AM 33.3°F0.7°C 31.7°F-0.2°C 94% Calm Calm -- 29.57 in1001.4 mb - 0.00 in0.0 mm 0.00 in0.0 mm
06:46 AM 33.0°F0.6°C 31.4°F-0.3°C 94% Calm Calm 1.1 mph1.8 kmh 29.57 in1001.4 mb - 0.00 in0.0 mm 0.00 in0.0 mm
06:52 AM 32.4°F0.2°C 30.9°F-0.6°C 94% Calm Calm 1.1 mph1.8 kmh 29.57 in1001.4 mb - 0.00 in0.0 mm 0.00 in0.0 mm
06:58 AM 32.4°F0.2°C 30.9°F-0.6°C 94% Calm Calm -- 29.57 in1001.4 mb - 0.00 in0.0 mm 0.00 in0.0 mm
07:03 AM 32.3°F0.2°C 31.0°F-0.6°C 95% Calm Calm -- 29.57 in1001.4 mb - 0.00 in0.0 mm 0.00 in0.0 mm
07:09 AM 32.3°F0.2°C 31.0°F-0.6°C 95% Calm Calm -- 29.57 in1001.4 mb - 0.00 in0.0 mm 0.00 in0.0 mm
07:15 AM 32.3°F0.2°C 31.0°F-0.6°C 95% Calm Calm -- 29.57 in1001.4 mb - 0.00 in0.0 mm 0.00 in0.0 mm
07:20 AM 31.9°F-0.1°C 30.7°F-0.7°C 95% Calm Calm -- 29.57 in1001.4 mb - 0.00 in0.0 mm 0.00 in0.0 mm
07:26 AM 31.4°F-0.3°C 30.1°F-1.1°C 95% Calm Calm -- 29.57 in1001.4 mb - 0.00 in0.0 mm 0.00 in0.0 mm
07:31 AM 31.2°F-0.4°C 29.9°F-1.2°C 95% Calm Calm -- 29.57 in1001.4 mb - 0.00 in0.0 mm 0.00 in0.0 mm
07:37 AM 31.3°F-0.4°C 30.3°F-0.9°C 96% Calm Calm -- 29.57 in1001.4 mb - 0.00 in0.0 mm 0.00 in0.0 mm
07:43 AM 31.4°F-0.3°C 30.4°F-0.9°C 96% Calm Calm -- 29.57 in1001.4 mb - 0.00 in0.0 mm 0.00 in0.0 mm
07:48 AM 31.4°F-0.3°C 30.4°F-0.9°C 96% Calm Calm -- 29.58 in1001.7 mb - 0.00 in0.0 mm 0.00 in0.0 mm
07:54 AM 31.5°F-0.3°C 30.5°F-0.8°C 96% Calm Calm -- 29.58 in1001.7 mb - 0.00 in0.0 mm 0.00 in0.0 mm
08:00 AM 31.8°F-0.1°C 31.1°F-0.5°C 97% Calm Calm -- 29.57 in1001.4 mb - 0.00 in0.0 mm 0.00 in0.0 mm
08:05 AM 31.9°F-0.1°C 30.9°F-0.6°C 96% Calm Calm -- 29.57 in1001.4 mb - 0.00 in0.0 mm 0.00 in0.0 mm
08:11 AM 31.4°F-0.3°C 30.4°F-0.9°C 96% Calm Calm -- 29.56 in1001.0 mb - 0.00 in0.0 mm 0.00 in0.0 mm
08:16 AM 31.4°F-0.3°C 30.4°F-0.9°C 96% Calm Calm -- 29.57 in1001.4 mb - 0.00 in0.0 mm 0.00 in0.0 mm
08:22 AM 31.4°F-0.3°C 30.4°F-0.9°C 96% Calm Calm -- 29.57 in1001.4 mb - 0.00 in0.0 mm 0.00 in0.0 mm
08:28 AM 31.5°F-0.3°C 30.7°F-0.7°C 97% Calm Calm -- 29.57 in1001.4 mb - 0.00 in0.0 mm 0.00 in0.0 mm
08:33 AM 31.6°F-0.2°C 30.8°F-0.7°C 97% Calm Calm -- 29.57 in1001.4 mb - 0.00 in0.0 mm 0.00 in0.0 mm
08:39 AM 31.7°F-0.2°C 30.9°F-0.6°C 97% Calm Calm -- 29.57 in1001.4 mb - 0.00 in0.0 mm 0.00 in0.0 mm
08:45 AM 31.4°F-0.3°C 30.4°F-0.9°C 96% Calm Calm -- 29.57 in1001.4 mb - 0.00 in0.0 mm 0.00 in0.0 mm
08:50 AM 31.2°F-0.4°C 30.2°F-1.0°C 96% Calm Calm -- 29.57 in1001.4 mb - 0.00 in0.0 mm 0.00 in0.0 mm
08:56 AM 31.5°F-0.3°C 30.8°F-0.7°C 97% Calm Calm -- 29.57 in1001.4 mb - 0.00 in0.0 mm 0.00 in0.0 mm
09:01 AM 31.7°F-0.2°C 30.9°F-0.6°C 97% Calm Calm -- 29.57 in1001.4 mb - 0.00 in0.0 mm 0.00 in0.0 mm
09:07 AM 31.7°F-0.2°C 31.0°F-0.6°C 97% Calm Calm -- 29.57 in1001.4 mb - 0.00 in0.0 mm 0.00 in0.0 mm
09:13 AM 31.8°F-0.1°C 31.0°F-0.6°C 97% Calm Calm -- 29.57 in1001.4 mb - 0.00 in0.0 mm 0.00 in0.0 mm
09:18 AM 31.8°F-0.1°C 31.1°F-0.5°C 97% Calm Calm -- 29.56 in1001.0 mb - 0.00 in0.0 mm 0.00 in0.0 mm
09:24 AM 31.8°F-0.1°C 31.1°F-0.5°C 97% Calm Calm -- 29.56 in1001.0 mb - 0.00 in0.0 mm 0.00 in0.0 mm
09:30 AM 31.9°F-0.1°C 31.1°F-0.5°C 97% Calm Calm 1.1 mph1.8 kmh 29.56 in1001.0 mb - 0.00 in0.0 mm 0.00 in0.0 mm
09:35 AM 32.1°F0.1°C 31.3°F-0.4°C 97% Calm Calm -- 29.56 in1001.0 mb - 0.00 in0.0 mm 0.00 in0.0 mm
09:41 AM 32.3°F0.2°C 31.5°F-0.3°C 97% Calm Calm -- 29.56 in1001.0 mb - 0.00 in0.0 mm 0.00 in0.0 mm
09:46 AM 32.4°F0.2°C 31.6°F-0.2°C 97% Calm Calm -- 29.56 in1001.0 mb - 0.00 in0.0 mm 0.00 in0.0 mm
09:52 AM 32.5°F0.3°C 31.7°F-0.2°C 97% Calm Calm -- 29.57 in1001.4 mb - 0.00 in0.0 mm 0.00 in0.0 mm
09:58 AM 32.5°F0.3°C 31.7°F-0.2°C 97% Calm Calm -- 29.57 in1001.4 mb - 0.00 in0.0 mm 0.00 in0.0 mm
10:03 AM 32.6°F0.3°C 31.9°F-0.1°C 97% Calm Calm -- 29.57 in1001.4 mb - 0.00 in0.0 mm 0.00 in0.0 mm
10:09 AM 32.8°F0.4°C 32.0°F0.0°C 97% Calm Calm -- 29.57 in1001.4 mb - 0.00 in0.0 mm 0.00 in0.0 mm
10:15 AM 32.9°F0.5°C 32.1°F0.1°C 97% Calm Calm -- 29.57 in1001.4 mb - 0.00 in0.0 mm 0.00 in0.0 mm
10:20 AM 33.0°F0.6°C 32.2°F0.1°C 97% Calm Calm -- 29.57 in1001.4 mb - 0.00 in0.0 mm 0.00 in0.0 mm
10:26 AM 33.1°F0.6°C 32.3°F0.2°C 97% Calm Calm -- 29.57 in1001.4 mb - 0.00 in0.0 mm 0.00 in0.0 mm
10:31 AM 33.2°F0.7°C 32.4°F0.2°C 97% Calm Calm -- 29.57 in1001.4 mb - 0.00 in0.0 mm 0.00 in0.0 mm
10:37 AM 33.6°F0.9°C 32.8°F0.4°C 97% Calm Calm 1.1 mph1.8 kmh 29.57 in1001.4 mb - 0.00 in0.0 mm 0.00 in0.0 mm
10:43 AM 33.9°F1.1°C 33.1°F0.6°C 97% Calm Calm -- 29.57 in1001.4 mb - 0.00 in0.0 mm 0.00 in0.0 mm
10:48 AM 34.2°F1.2°C 33.4°F0.8°C 97% Calm Calm 1.1 mph1.8 kmh 29.57 in1001.4 mb - 0.00 in0.0 mm 0.00 in0.0 mm
10:54 AM 34.6°F1.4°C 33.8°F1.0°C 97% Calm Calm 1.1 mph1.8 kmh 29.56 in1001.0 mb - 0.00 in0.0 mm 0.00 in0.0 mm
11:00 AM 34.9°F1.6°C 34.1°F1.2°C 97% Calm Calm 1.1 mph1.8 kmh 29.55 in1000.7 mb - 0.00 in0.0 mm 0.00 in0.0 mm
11:05 AM 34.9°F1.6°C 34.1°F1.2°C 97% Calm Calm 1.1 mph1.8 kmh 29.55 in1000.7 mb - 0.00 in0.0 mm 0.00 in0.0 mm
11:11 AM 34.9°F1.6°C 34.1°F1.2°C 97% Calm Calm -- 29.55 in1000.7 mb - 0.00 in0.0 mm 0.00 in0.0 mm
11:16 AM 34.9°F1.6°C 34.1°F1.2°C 97% Calm Calm 1.1 mph1.8 kmh 29.55 in1000.7 mb - 0.00 in0.0 mm 0.00 in0.0 mm
11:22 AM 35.0°F1.7°C 34.2°F1.2°C 97% Calm Calm 1.1 mph1.8 kmh 29.55 in1000.7 mb - 0.00 in0.0 mm 0.00 in0.0 mm
11:28 AM 35.1°F1.7°C 34.3°F1.3°C 97% Calm Calm 1.1 mph1.8 kmh 29.55 in1000.7 mb - 0.00 in0.0 mm 0.00 in0.0 mm
11:33 AM 35.6°F2.0°C 34.8°F1.6°C 97% Calm Calm -- 29.55 in1000.7 mb - 0.00 in0.0 mm 0.00 in0.0 mm
11:39 AM 35.9°F2.2°C 35.1°F1.7°C 97% Calm Calm -- 29.55 in1000.7 mb - 0.00 in0.0 mm 0.00 in0.0 mm
11:45 AM 36.0°F2.2°C 35.3°F1.8°C 97% Calm Calm -- 29.55 in1000.7 mb - 0.00 in0.0 mm 0.00 in0.0 mm
11:50 AM 36.1°F2.3°C 35.1°F1.7°C 96% Calm Calm -- 29.55 in1000.7 mb - 0.00 in0.0 mm 0.00 in0.0 mm
11:56 AM 36.1°F2.3°C 35.1°F1.7°C 96% Calm Calm -- 29.55 in1000.7 mb - 0.00 in0.0 mm 0.00 in0.0 mm
12:01 PM 36.1°F2.3°C 35.1°F1.7°C 96% Calm Calm 1.1 mph1.8 kmh 29.55 in1000.7 mb - 0.00 in0.0 mm 0.00 in0.0 mm
12:07 PM 36.2°F2.3°C 35.2°F1.8°C 96% Calm Calm -- 29.54 in1000.3 mb - 0.00 in0.0 mm 0.00 in0.0 mm
12:13 PM 36.4°F2.4°C 35.4°F1.9°C 96% Calm Calm 1.1 mph1.8 kmh 29.54 in1000.3 mb - 0.00 in0.0 mm 0.00 in0.0 mm
12:18 PM 36.8°F2.7°C 35.8°F2.1°C 96% Calm Calm -- 29.54 in1000.3 mb - 0.00 in0.0 mm 0.00 in0.0 mm
12:24 PM 37.3°F2.9°C 36.3°F2.4°C 96% Calm Calm 1.1 mph1.8 kmh 29.54 in1000.3 mb - 0.00 in0.0 mm 0.00 in0.0 mm
12:30 PM 37.6°F3.1°C 36.0°F2.2°C 94% Calm Calm -- 29.54 in1000.3 mb - 0.00 in0.0 mm 0.00 in0.0 mm
12:35 PM 37.6°F3.1°C 36.0°F2.2°C 94% Calm Calm 1.1 mph1.8 kmh 29.54 in1000.3 mb - 0.00 in0.0 mm 0.00 in0.0 mm
12:41 PM 37.6°F3.1°C 36.1°F2.3°C 94% Calm Calm 1.1 mph1.8 kmh 29.54 in1000.3 mb - 0.00 in0.0 mm 0.00 in0.0 mm
12:46 PM 37.7°F3.2°C 35.8°F2.1°C 93% Calm Calm 1.1 mph1.8 kmh 29.54 in1000.3 mb - 0.00 in0.0 mm 0.00 in0.0 mm
12:52 PM 37.6°F3.1°C 35.8°F2.1°C 93% Calm Calm 1.1 mph1.8 kmh 29.55 in1000.7 mb - 0.00 in0.0 mm 0.00 in0.0 mm
12:58 PM 37.7°F3.2°C 35.9°F2.2°C 93% 1.1 mph E1.8 kmh E 2.3 mph3.7 kmh 29.55 in1000.7 mb - 0.00 in0.0 mm 0.00 in0.0 mm
01:03 PM 37.7°F3.2°C 35.6°F2.0°C 92% 2.3 mph NNE3.7 kmh NNE 3.4 mph5.5 kmh 29.55 in1000.7 mb - 0.00 in0.0 mm 0.00 in0.0 mm
01:09 PM 37.7°F3.2°C 35.6°F2.0°C 92% 2.3 mph N3.7 kmh N 3.4 mph5.5 kmh 29.55 in1000.7 mb - 0.00 in0.0 mm 0.00 in0.0 mm
01:15 PM 37.7°F3.2°C 35.6°F2.0°C 92% 2.3 mph N3.7 kmh N 6.9 mph11.1 kmh 29.56 in1001.0 mb - 0.00 in0.0 mm 0.00 in0.0 mm
01:20 PM 37.7°F3.2°C 35.6°F2.0°C 92% Calm Calm 2.3 mph3.7 kmh 29.56 in1001.0 mb - 0.00 in0.0 mm 0.00 in0.0 mm
01:26 PM 37.4°F3.0°C 35.6°F2.0°C 93% Calm Calm 2.3 mph3.7 kmh 29.55 in1000.7 mb - 0.00 in0.0 mm 0.00 in0.0 mm
01:31 PM 37.3°F2.9°C 35.5°F1.9°C 93% Calm Calm 1.1 mph1.8 kmh 29.55 in1000.7 mb - 0.00 in0.0 mm 0.00 in0.0 mm
01:37 PM 37.2°F2.9°C 35.6°F2.0°C 94% Calm Calm -- 29.55 in1000.7 mb - 0.00 in0.0 mm 0.00 in0.0 mm
01:43 PM 37.1°F2.8°C 35.5°F1.9°C 94% Calm Calm -- 29.55 in1000.7 mb - 0.00 in0.0 mm 0.00 in0.0 mm
01:48 PM 37.0°F2.8°C 35.4°F1.9°C 94% Calm Calm -- 29.55 in1000.7 mb - 0.00 in0.0 mm 0.00 in0.0 mm
01:54 PM 36.9°F2.7°C 35.3°F1.8°C 94% Calm Calm -- 29.55 in1000.7 mb - 0.00 in0.0 mm 0.00 in0.0 mm
02:00 PM 36.4°F2.4°C 34.8°F1.6°C 94% Calm Calm -- 29.54 in1000.3 mb - 0.00 in0.0 mm 0.00 in0.0 mm
02:05 PM 36.1°F2.3°C 34.5°F1.4°C 94% Calm Calm -- 29.54 in1000.3 mb - 0.00 in0.0 mm 0.00 in0.0 mm
02:11 PM 35.9°F2.2°C 34.6°F1.4°C 95% Calm Calm -- 29.55 in1000.7 mb - 0.00 in0.0 mm 0.00 in0.0 mm
02:16 PM 35.6°F2.0°C 34.3°F1.3°C 95% Calm Calm -- 29.55 in1000.7 mb - 0.00 in0.0 mm 0.00 in0.0 mm
02:22 PM 35.6°F2.0°C 34.3°F1.3°C 95% Calm Calm 2.3 mph3.7 kmh 29.54 in1000.3 mb - 0.00 in0.0 mm 0.00 in0.0 mm
02:28 PM 35.6°F2.0°C 34.3°F1.3°C 95% Calm Calm -- 29.54 in1000.3 mb - 0.00 in0.0 mm 0.00 in0.0 mm
02:33 PM 35.6°F2.0°C 34.6°F1.4°C 96% Calm Calm -- 29.55 in1000.7 mb - 0.00 in0.0 mm 0.00 in0.0 mm
02:39 PM 35.7°F2.1°C 34.7°F1.5°C 96% Calm Calm -- 29.55 in1000.7 mb - 0.00 in0.0 mm 0.00 in0.0 mm
02:45 PM 35.7°F2.1°C 34.7°F1.5°C 96% Calm Calm -- 29.54 in1000.3 mb - 0.00 in0.0 mm 0.00 in0.0 mm
02:50 PM 35.7°F2.1°C 34.7°F1.5°C 96% Calm Calm -- 29.54 in1000.3 mb - 0.00 in0.0 mm 0.00 in0.0 mm
02:56 PM 35.6°F2.0°C 34.5°F1.4°C 96% Calm Calm -- 29.54 in1000.3 mb - 0.00 in0.0 mm 0.00 in0.0 mm
03:01 PM 35.4°F1.9°C 34.4°F1.3°C 96% Calm Calm 1.1 mph1.8 kmh 29.54 in1000.3 mb - 0.00 in0.0 mm 0.00 in0.0 mm
03:07 PM 35.3°F1.8°C 34.3°F1.3°C 96% Calm Calm -- 29.54 in1000.3 mb - 0.00 in0.0 mm 0.00 in0.0 mm
03:13 PM 35.2°F1.8°C 34.2°F1.2°C 96% Calm Calm -- 29.54 in1000.3 mb - 0.00 in0.0 mm 0.00 in0.0 mm
03:18 PM 35.1°F1.7°C 34.1°F1.2°C 96% Calm Calm 1.1 mph1.8 kmh 29.55 in1000.7 mb - 0.00 in0.0 mm 0.00 in0.0 mm
03:24 PM 34.9°F1.6°C 33.9°F1.1°C 96% Calm Calm -- 29.55 in1000.7 mb - 0.00 in0.0 mm 0.00 in0.0 mm
03:30 PM 34.7°F1.5°C 33.7°F0.9°C 96% Calm Calm -- 29.55 in1000.7 mb - 0.00 in0.0 mm 0.00 in0.0 mm
03:35 PM 34.5°F1.4°C 33.4°F0.8°C 96% Calm Calm -- 29.54 in1000.3 mb - 0.00 in0.0 mm 0.00 in0.0 mm
03:41 PM 33.9°F1.1°C 32.9°F0.5°C 96% Calm Calm -- 29.54 in1000.3 mb - 0.00 in0.0 mm 0.00 in0.0 mm
03:46 PM 33.8°F1.0°C 32.8°F0.4°C 96% Calm Calm 1.1 mph1.8 kmh 29.54 in1000.3 mb - 0.00 in0.0 mm 0.00 in0.0 mm
03:52 PM 33.5°F0.8°C 32.5°F0.3°C 96% Calm Calm -- 29.54 in1000.3 mb - 0.00 in0.0 mm 0.00 in0.0 mm
03:58 PM 33.3°F0.7°C 32.3°F0.2°C 96% Calm Calm -- 29.54 in1000.3 mb - 0.00 in0.0 mm 0.00 in0.0 mm
04:03 PM 33.0°F0.6°C 32.0°F0.0°C 96% Calm Calm -- 29.54 in1000.3 mb - 0.00 in0.0 mm 0.00 in0.0 mm
04:09 PM 33.0°F0.6°C 32.0°F0.0°C 96% Calm Calm 1.1 mph1.8 kmh 29.55 in1000.7 mb - 0.00 in0.0 mm 0.00 in0.0 mm
04:15 PM 32.8°F0.4°C 31.8°F-0.1°C 96% Calm Calm 1.1 mph1.8 kmh 29.55 in1000.7 mb - 0.00 in0.0 mm 0.00 in0.0 mm
04:20 PM 32.7°F0.4°C 31.7°F-0.2°C 96% Calm Calm -- 29.55 in1000.7 mb - 0.00 in0.0 mm 0.00 in0.0 mm
04:26 PM 32.7°F0.4°C 31.9°F-0.1°C 97% Calm Calm -- 29.55 in1000.7 mb - 0.00 in0.0 mm 0.00 in0.0 mm
04:31 PM 32.5°F0.3°C 31.7°F-0.2°C 97% Calm Calm -- 29.55 in1000.7 mb - 0.00 in0.0 mm 0.00 in0.0 mm
04:37 PM 31.9°F-0.1°C 30.9°F-0.6°C 96% Calm Calm -- 29.54 in1000.3 mb - 0.00 in0.0 mm 0.00 in0.0 mm
04:43 PM 31.9°F-0.1°C 30.9°F-0.6°C 96% Calm Calm -- 29.54 in1000.3 mb - 0.00 in0.0 mm 0.00 in0.0 mm
04:48 PM 31.9°F-0.1°C 31.1°F-0.5°C 97% Calm Calm -- 29.54 in1000.3 mb - 0.00 in0.0 mm 0.00 in0.0 mm
04:54 PM 31.8°F-0.1°C 31.0°F-0.6°C 97% Calm Calm -- 29.54 in1000.3 mb - 0.00 in0.0 mm 0.00 in0.0 mm
05:00 PM 31.5°F-0.3°C 30.7°F-0.7°C 97% Calm Calm -- 29.54 in1000.3 mb - 0.00 in0.0 mm 0.00 in0.0 mm
05:05 PM 31.6°F-0.2°C 30.8°F-0.7°C 97% Calm Calm -- 29.54 in1000.3 mb - 0.00 in0.0 mm 0.00 in0.0 mm
05:11 PM 31.2°F-0.4°C 30.4°F-0.9°C 97% Calm Calm -- 29.54 in1000.3 mb - 0.00 in0.0 mm 0.00 in0.0 mm
05:16 PM 31.1°F-0.5°C 30.3°F-0.9°C 97% Calm Calm -- 29.54 in1000.3 mb - 0.00 in0.0 mm 0.00 in0.0 mm
05:22 PM 30.9°F-0.6°C 30.2°F-1.0°C 97% Calm Calm -- 29.54 in1000.3 mb - 0.00 in0.0 mm 0.00 in0.0 mm
05:28 PM 30.9°F-0.6°C 30.1°F-1.1°C 97% Calm Calm -- 29.54 in1000.3 mb - 0.00 in0.0 mm 0.00 in0.0 mm
05:33 PM 30.6°F-0.8°C 29.9°F-1.2°C 97% Calm Calm -- 29.54 in1000.3 mb - 0.00 in0.0 mm 0.00 in0.0 mm
05:39 PM 30.4°F-0.9°C 29.7°F-1.3°C 97% Calm Calm -- 29.55 in1000.7 mb - 0.00 in0.0 mm 0.00 in0.0 mm
05:45 PM 30.4°F-0.9°C 29.7°F-1.3°C 97% Calm Calm -- 29.54 in1000.3 mb - 0.00 in0.0 mm 0.00 in0.0 mm
05:50 PM 30.4°F-0.9°C 29.7°F-1.3°C 97% Calm Calm -- 29.54 in1000.3 mb - 0.00 in0.0 mm 0.00 in0.0 mm
05:56 PM 30.1°F-1.1°C 29.3°F-1.5°C 97% Calm Calm -- 29.54 in1000.3 mb - 0.00 in0.0 mm 0.00 in0.0 mm
06:01 PM 30.2°F-1.0°C 29.5°F-1.4°C 97% Calm Calm -- 29.54 in1000.3 mb - 0.00 in0.0 mm 0.00 in0.0 mm
06:07 PM 30.8°F-0.7°C 30.0°F-1.1°C 97% Calm Calm 1.1 mph1.8 kmh 29.54 in1000.3 mb - 0.00 in0.0 mm 0.00 in0.0 mm
06:13 PM 31.0°F-0.6°C 30.2°F-1.0°C 97% Calm Calm -- 29.54 in1000.3 mb - 0.00 in0.0 mm 0.00 in0.0 mm
06:18 PM 30.9°F-0.6°C 30.2°F-1.0°C 97% Calm Calm -- 29.54 in1000.3 mb - 0.00 in0.0 mm 0.00 in0.0 mm
06:24 PM 31.5°F-0.3°C 31.0°F-0.6°C 98% Calm Calm -- 29.55 in1000.7 mb - 0.00 in0.0 mm 0.00 in0.0 mm
06:30 PM 31.1°F-0.5°C 30.3°F-0.9°C 97% Calm Calm 1.1 mph1.8 kmh 29.54 in1000.3 mb - 0.00 in0.0 mm 0.00 in0.0 mm
06:35 PM 31.1°F-0.5°C 30.3°F-0.9°C 97% Calm Calm -- 29.54 in1000.3 mb - 0.00 in0.0 mm 0.00 in0.0 mm
06:41 PM 31.2°F-0.4°C 30.4°F-0.9°C 97% Calm Calm 2.3 mph3.7 kmh 29.54 in1000.3 mb - 0.00 in0.0 mm 0.00 in0.0 mm
06:46 PM 31.4°F-0.3°C 30.6°F-0.8°C 97% Calm Calm -- 29.54 in1000.3 mb - 0.00 in0.0 mm 0.00 in0.0 mm
06:52 PM 31.3°F-0.4°C 30.5°F-0.8°C 97% Calm Calm -- 29.54 in1000.3 mb - 0.00 in0.0 mm 0.00 in0.0 mm
06:58 PM 31.2°F-0.4°C 30.4°F-0.9°C 97% Calm Calm -- 29.54 in1000.3 mb - 0.00 in0.0 mm 0.00 in0.0 mm
07:03 PM 31.1°F-0.5°C 30.4°F-0.9°C 97% Calm Calm -- 29.54 in1000.3 mb - 0.00 in0.0 mm 0.00 in0.0 mm
07:09 PM 31.0°F-0.6°C 30.3°F-0.9°C 97% Calm Calm -- 29.54 in1000.3 mb - 0.00 in0.0 mm 0.00 in0.0 mm
07:15 PM 31.2°F-0.4°C 30.4°F-0.9°C 97% Calm Calm -- 29.54 in1000.3 mb - 0.00 in0.0 mm 0.00 in0.0 mm
07:20 PM 31.2°F-0.4°C 30.4°F-0.9°C 97% Calm Calm -- 29.54 in1000.3 mb - 0.00 in0.0 mm 0.00 in0.0 mm
07:26 PM 31.0°F-0.6°C 30.2°F-1.0°C 97% Calm Calm -- 29.54 in1000.3 mb - 0.00 in0.0 mm 0.00 in0.0 mm
07:31 PM 31.0°F-0.6°C 30.2°F-1.0°C 97% Calm Calm -- 29.54 in1000.3 mb - 0.00 in0.0 mm 0.00 in0.0 mm
07:37 PM 31.0°F-0.6°C 30.2°F-1.0°C 97% Calm Calm -- 29.53 in1000.0 mb - 0.00 in0.0 mm 0.00 in0.0 mm
07:43 PM 30.6°F-0.8°C 29.8°F-1.2°C 97% Calm Calm -- 29.53 in1000.0 mb - 0.00 in0.0 mm 0.00 in0.0 mm
07:48 PM 30.2°F-1.0°C 29.5°F-1.4°C 97% Calm Calm -- 29.53 in1000.0 mb - 0.00 in0.0 mm 0.00 in0.0 mm
07:54 PM 30.2°F-1.0°C 29.5°F-1.4°C 97% Calm Calm -- 29.53 in1000.0 mb - 0.00 in0.0 mm 0.00 in0.0 mm
08:00 PM 30.9°F-0.6°C 30.4°F-0.9°C 98% Calm Calm -- 29.53 in1000.0 mb - 0.00 in0.0 mm 0.00 in0.0 mm
08:05 PM 31.0°F-0.6°C 30.5°F-0.8°C 98% 1.1 mph SE1.8 kmh SE 1.1 mph1.8 kmh 29.52 in999.7 mb - 0.00 in0.0 mm 0.00 in0.0 mm
08:11 PM 31.1°F-0.5°C 30.6°F-0.8°C 98% Calm Calm -- 29.52 in999.7 mb - 0.00 in0.0 mm 0.00 in0.0 mm
08:16 PM 31.0°F-0.6°C 30.5°F-0.8°C 98% Calm Calm -- 29.52 in999.7 mb - 0.00 in0.0 mm 0.00 in0.0 mm
08:22 PM 31.0°F-0.6°C 30.5°F-0.8°C 98% Calm Calm 2.3 mph3.7 kmh 29.52 in999.7 mb - 0.00 in0.0 mm 0.00 in0.0 mm
08:28 PM 31.0°F-0.6°C 30.5°F-0.8°C 98% Calm Calm 1.1 mph1.8 kmh 29.52 in999.7 mb - 0.00 in0.0 mm 0.00 in0.0 mm
08:33 PM 31.1°F-0.5°C 30.6°F-0.8°C 98% Calm Calm 1.1 mph1.8 kmh 29.52 in999.7 mb - 0.00 in0.0 mm 0.00 in0.0 mm
08:39 PM 31.4°F-0.3°C 30.9°F-0.6°C 98% Calm Calm 1.1 mph1.8 kmh 29.52 in999.7 mb - 0.00 in0.0 mm 0.00 in0.0 mm
08:45 PM 31.6°F-0.2°C 31.1°F-0.5°C 98% Calm Calm -- 29.52 in999.7 mb - 0.00 in0.0 mm 0.00 in0.0 mm
08:50 PM 31.7°F-0.2°C 31.2°F-0.4°C 98% Calm Calm 1.1 mph1.8 kmh 29.52 in999.7 mb - 0.00 in0.0 mm 0.00 in0.0 mm
08:56 PM 31.8°F-0.1°C 31.3°F-0.4°C 98% Calm Calm 1.1 mph1.8 kmh 29.52 in999.7 mb - 0.00 in0.0 mm 0.00 in0.0 mm
09:01 PM 31.7°F-0.2°C 31.2°F-0.4°C 98% Calm Calm 1.1 mph1.8 kmh 29.52 in999.7 mb - 0.00 in0.0 mm 0.00 in0.0 mm
09:07 PM 31.8°F-0.1°C 31.3°F-0.4°C 98% Calm Calm -- 29.51 in999.3 mb - 0.00 in0.0 mm 0.00 in0.0 mm
09:13 PM 31.5°F-0.3°C 30.7°F-0.7°C 97% Calm Calm 1.1 mph1.8 kmh 29.51 in999.3 mb - 0.00 in0.0 mm 0.00 in0.0 mm
09:18 PM 31.4°F-0.3°C 30.6°F-0.8°C 97% Calm Calm 1.1 mph1.8 kmh 29.51 in999.3 mb - 0.00 in0.0 mm 0.00 in0.0 mm
09:24 PM 31.5°F-0.3°C 30.7°F-0.7°C 97% Calm Calm 1.1 mph1.8 kmh 29.51 in999.3 mb - 0.00 in0.0 mm 0.00 in0.0 mm
09:30 PM 31.7°F-0.2°C 31.0°F-0.6°C 97% Calm Calm 2.3 mph3.7 kmh 29.50 in999.0 mb - 0.00 in0.0 mm 0.00 in0.0 mm
09:35 PM 31.8°F-0.1°C 31.0°F-0.6°C 97% Calm Calm 1.1 mph1.8 kmh 29.50 in999.0 mb - 0.00 in0.0 mm 0.00 in0.0 mm
09:41 PM 32.1°F0.1°C 31.4°F-0.3°C 97% Calm Calm 1.1 mph1.8 kmh 29.50 in999.0 mb - 0.00 in0.0 mm 0.00 in0.0 mm
09:46 PM 32.2°F0.1°C 31.7°F-0.2°C 98% 1.1 mph SE1.8 kmh SE 2.3 mph3.7 kmh 29.50 in999.0 mb - 0.00 in0.0 mm 0.00 in0.0 mm
09:52 PM 32.3°F0.2°C 31.5°F-0.3°C 97% Calm Calm 1.1 mph1.8 kmh 29.50 in999.0 mb - 0.00 in0.0 mm 0.00 in0.0 mm
09:58 PM 32.4°F0.2°C 31.6°F-0.2°C 97% Calm Calm 1.1 mph1.8 kmh 29.50 in999.0 mb - 0.00 in0.0 mm 0.00 in0.0 mm
10:03 PM 32.2°F0.1°C 31.4°F-0.3°C 97% Calm Calm 1.1 mph1.8 kmh 29.50 in999.0 mb - 0.00 in0.0 mm 0.00 in0.0 mm
10:09 PM 32.2°F0.1°C 31.4°F-0.3°C 97% Calm Calm -- 29.50 in999.0 mb - 0.00 in0.0 mm 0.00 in0.0 mm
10:15 PM 32.5°F0.3°C 31.7°F-0.2°C 97% Calm Calm -- 29.50 in999.0 mb - 0.00 in0.0 mm 0.00 in0.0 mm
10:20 PM 32.5°F0.3°C 31.8°F-0.1°C 97% Calm Calm -- 29.50 in999.0 mb - 0.00 in0.0 mm 0.00 in0.0 mm
10:26 PM 32.6°F0.3°C 31.9°F-0.1°C 97% Calm Calm 1.1 mph1.8 kmh 29.50 in999.0 mb - 0.00 in0.0 mm 0.00 in0.0 mm
10:31 PM 32.9°F0.5°C 32.1°F0.1°C 97% Calm Calm -- 29.50 in999.0 mb - 0.00 in0.0 mm 0.00 in0.0 mm
10:37 PM 32.9°F0.5°C 32.1°F0.1°C 97% Calm Calm 2.3 mph3.7 kmh 29.50 in999.0 mb - 0.00 in0.0 mm 0.00 in0.0 mm
10:43 PM 33.0°F0.6°C 32.2°F0.1°C 97% Calm Calm 1.1 mph1.8 kmh 29.50 in999.0 mb - 0.00 in0.0 mm 0.00 in0.0 mm
10:48 PM 32.9°F0.5°C 32.1°F0.1°C 97% Calm Calm 1.1 mph1.8 kmh 29.50 in999.0 mb - 0.00 in0.0 mm 0.00 in0.0 mm
10:54 PM 32.9°F0.5°C 32.1°F0.1°C 97% Calm Calm 1.1 mph1.8 kmh 29.50 in999.0 mb - 0.00 in0.0 mm 0.00 in0.0 mm
11:00 PM 33.1°F0.6°C 32.4°F0.2°C 97% 1.1 mph SE1.8 kmh SE 3.4 mph5.5 kmh 29.50 in999.0 mb - 0.00 in0.0 mm 0.00 in0.0 mm
11:05 PM 33.2°F0.7°C 32.4°F0.2°C 97% 1.1 mph SE1.8 kmh SE 1.1 mph1.8 kmh 29.49 in998.6 mb - 0.00 in0.0 mm 0.00 in0.0 mm
11:11 PM 33.2°F0.7°C 32.2°F0.1°C 96% Calm Calm 1.1 mph1.8 kmh 29.49 in998.6 mb - 0.00 in0.0 mm 0.00 in0.0 mm
11:16 PM 32.9°F0.5°C 31.6°F-0.2°C 95% 1.1 mph SE1.8 kmh SE 3.4 mph5.5 kmh 29.49 in998.6 mb - 0.00 in0.0 mm 0.00 in0.0 mm
11:22 PM 33.1°F0.6°C 31.6°F-0.2°C 94% 1.1 mph NE1.8 kmh NE 2.3 mph3.7 kmh 29.49 in998.6 mb - 0.00 in0.0 mm 0.00 in0.0 mm
11:28 PM 33.1°F0.6°C 31.6°F-0.2°C 94% 1.1 mph E1.8 kmh E 1.1 mph1.8 kmh 29.49 in998.6 mb - 0.00 in0.0 mm 0.00 in0.0 mm
11:33 PM 33.2°F0.7°C 31.4°F-0.3°C 93% 1.1 mph SSW1.8 kmh SSW 2.3 mph3.7 kmh 29.49 in998.6 mb - 0.00 in0.0 mm 0.00 in0.0 mm
11:39 PM 33.1°F0.6°C 31.3°F-0.4°C 93% Calm Calm -- 29.49 in998.6 mb - 0.00 in0.0 mm 0.00 in0.0 mm
11:45 PM 32.7°F0.4°C 30.9°F-0.6°C 93% Calm Calm 1.1 mph1.8 kmh 29.49 in998.6 mb - 0.00 in0.0 mm 0.00 in0.0 mm
11:50 PM 32.8°F0.4°C 31.0°F-0.6°C 93% Calm Calm 1.1 mph1.8 kmh 29.49 in998.6 mb - 0.00 in0.0 mm 0.00 in0.0 mm
11:56 PM 33.0°F0.6°C 31.2°F-0.4°C 93% 1.1 mph SE1.8 kmh SE 1.1 mph1.8 kmh 29.49 in998.6 mb - 0.00 in0.0 mm 0.00 in0.0 mm